Fort Ashby, West Virginia
Current Conditions -  °F | °C
As of 4:35 PM on Thursday 23 Oct 2014 (Local Time) from KCBE Reporting Station
Clear Clear  
Wind Chill: 63°   Ceiling: Unl
Heat Index: 63°   Visibility: 10mi
Dew Point: 39°   Wind: 17mph
Humidity: 42%   Direction: 320°NW
Pressure: 29.99"   Gusts: 37mph
Location:  39.5°N, 78.77°W
Report Text: KCBE 232035Z AUTO 32015G32KT 10SM CLR 17/04 A2999 RMK AO1
Loading
Personal Weather Stations






























Interactive Weather Map
Tropical Storm Tracking
New forecast layout! Learn more

10-Day Weather Forecast

Advertisements
Track Severe Weather on mobile